Time;durP1;ratioP1;P1;durP2;ratioP2;P2;SDS_P1;SDS_P2;PMS_P1;PMS_P2;Temp;Humidity;BMP_temperature;BMP_pressure;BME280_temperature;BME280_humidity;BME280_pressure;Samples;Min_cycle;Max_cycle;Signal;HPM_P1;HPM_P2
2023/02/05 00:02:20;;;;;;;6.53;2.03;;;;;;;-3.27;100.00;102983.06;5004638;28;20042;-71
2023/02/05 00:04:45;;;;;;;7.70;2.53;;;;;;;-3.38;99.37;102981.19;5006184;28;20101;-71
2023/02/05 00:07:10;;;;;;;6.53;2.40;;;;;;;-3.52;98.96;102985.13;5002031;28;20038;-71
2023/02/05 00:09:39;;;;;;;5.83;2.27;;;;;;;-3.62;99.81;102991.13;5007422;28;20037;-71
2023/02/05 00:12:05;;;;;;;5.50;1.90;;;;;;;-3.65;100.00;102984.78;5003060;28;20409;-71
2023/02/05 00:14:30;;;;;;;8.57;2.23;;;;;;;-3.66;100.00;102985.56;5006694;28;20042;-71
2023/02/05 00:16:56;;;;;;;8.20;2.60;;;;;;;-3.69;100.00;102978.47;5004780;28;20048;-71
2023/02/05 00:19:21;;;;;;;8.70;3.43;;;;;;;-3.72;100.00;102977.25;5007713;28;20120;-71
2023/02/05 00:21:46;;;;;;;5.87;2.20;;;;;;;-3.78;100.00;102975.94;5001903;28;20073;-71
2023/02/05 00:24:12;;;;;;;8.37;2.30;;;;;;;-3.79;100.00;102974.13;5003016;28;20560;-71
2023/02/05 00:26:37;;;;;;;5.97;2.00;;;;;;;-3.86;100.00;102968.28;5003067;28;20472;-71
2023/02/05 00:29:03;;;;;;;5.50;1.93;;;;;;;-3.96;100.00;102966.50;5005039;28;20061;-71
2023/02/05 00:31:29;;;;;;;4.87;1.97;;;;;;;-4.06;100.00;102963.84;5007180;28;20148;-71
2023/02/05 00:33:55;;;;;;;5.00;1.80;;;;;;;-4.04;100.00;102976.13;5001352;28;20113;-71
2023/02/05 00:36:21;;;;;;;4.60;1.57;;;;;;;-4.07;100.00;102982.69;4993927;28;20038;-71
2023/02/05 00:38:48;;;;;;;5.73;1.63;;;;;;;-4.11;100.00;102975.44;5003653;28;20382;-71
2023/02/05 00:41:14;;;;;;;5.23;1.80;;;;;;;-4.09;100.00;102981.63;5005129;28;20408;-71
2023/02/05 00:43:40;;;;;;;4.13;1.70;;;;;;;-4.11;100.00;102984.09;5005172;28;20034;-71
2023/02/05 00:46:07;;;;;;;5.67;2.47;;;;;;;-4.09;100.00;102985.13;4983925;28;20659;-71
2023/02/05 00:48:32;;;;;;;5.60;2.17;;;;;;;-4.08;100.00;102986.94;5007542;28;20037;-71
2023/02/05 00:50:57;;;;;;;4.00;1.27;;;;;;;-4.04;100.00;102993.28;4987205;28;20038;-71
2023/02/05 00:53:24;;;;;;;6.03;2.20;;;;;;;-4.01;100.00;102997.06;5001012;28;20166;-71
2023/02/05 00:55:50;;;;;;;5.83;1.93;;;;;;;-3.99;100.00;102990.34;4986436;28;20033;-71
2023/02/05 00:58:15;;;;;;;6.83;1.90;;;;;;;-4.02;100.00;102995.25;4983683;28;20034;-71
2023/02/05 01:00:41;;;;;;;5.10;2.13;;;;;;;-4.07;100.00;102999.06;4988192;28;20041;-71
2023/02/05 01:03:06;;;;;;;4.30;1.50;;;;;;;-4.03;100.00;102993.44;4987085;28;20034;-71
2023/02/05 01:05:36;;;;;;;4.60;1.40;;;;;;;-4.03;100.00;102990.84;5003768;28;20030;-71
2023/02/05 01:08:02;;;;;;;3.83;1.50;;;;;;;-4.06;100.00;102987.06;5001527;28;20041;-72
2023/02/05 01:10:27;;;;;;;4.47;1.57;;;;;;;-4.05;100.00;102991.47;5004895;28;20042;-71
2023/02/05 01:12:53;;;;;;;4.17;1.37;;;;;;;-4.07;100.00;102991.34;5001943;28;20053;-71
2023/02/05 01:15:19;;;;;;;6.07;1.80;;;;;;;-4.12;100.00;102981.34;5003038;28;20045;-71
2023/02/05 01:17:45;;;;;;;9.40;2.17;;;;;;;-4.14;100.00;102978.63;4986444;28;20040;-71
2023/02/05 01:20:12;;;;;;;5.63;2.00;;;;;;;-4.18;100.00;102976.53;5004116;28;20046;-71
2023/02/05 01:22:37;;;;;;;8.60;2.70;;;;;;;-4.20;100.00;102990.97;5005187;28;20504;-71
2023/02/05 01:25:03;;;;;;;6.10;1.60;;;;;;;-4.23;100.00;102981.28;5000414;28;20112;-71
2023/02/05 01:27:31;;;;;;;4.13;1.37;;;;;;;-4.27;100.00;102978.25;4984384;28;20173;-71
2023/02/05 01:29:56;;;;;;;4.20;1.50;;;;;;;-4.41;100.00;102965.00;5005224;28;20041;-71
2023/02/05 01:32:22;;;;;;;6.23;1.80;;;;;;;-4.45;100.00;102962.91;5000577;28;20076;-71
2023/02/05 01:34:47;;;;;;;5.30;1.90;;;;;;;-4.49;100.00;102968.53;5002759;28;20132;-71
2023/02/05 01:37:12;;;;;;;7.47;2.37;;;;;;;-4.61;100.00;102957.09;4991042;28;20116;-71
2023/02/05 01:39:38;;;;;;;3.83;1.63;;;;;;;-4.72;100.00;102956.06;5004075;28;20073;-71
2023/02/05 01:42:17;;;;;;;4.80;1.50;;;;;;;-4.72;100.00;102950.00;4985381;28;20037;-71
2023/02/05 01:44:43;;;;;;;9.53;1.90;;;;;;;-4.83;100.00;102940.38;4983501;28;20037;-71
2023/02/05 01:47:08;;;;;;;7.13;1.83;;;;;;;-4.87;100.00;102937.50;5003516;28;20029;-71
2023/02/05 01:49:37;;;;;;;8.73;2.47;;;;;;;-4.85;100.00;102936.00;5004058;28;20483;-71
2023/02/05 01:52:08;;;;;;;4.77;1.77;;;;;;;-4.84;100.00;102929.16;4999909;28;20152;-71
2023/02/05 01:54:36;;;;;;;4.03;1.40;;;;;;;-4.87;100.00;102932.34;4984940;28;20516;-71
2023/02/05 01:57:21;;;;;;;3.57;0.90;;;;;;;-4.89;100.00;102931.31;5000409;28;20035;-72
2023/02/05 01:59:48;;;;;;;7.70;2.50;;;;;;;-4.98;100.00;102924.38;5003659;28;20041;-71
2023/02/05 02:02:14;;;;;;;5.63;1.60;;;;;;;-5.06;100.00;102926.22;5003391;28;20149;-71
2023/02/05 02:04:42;;;;;;;5.13;1.60;;;;;;;-5.08;100.00;102923.50;4984312;28;20509;-71
2023/02/05 02:07:11;;;;;;;6.57;1.93;;;;;;;-5.13;100.00;102919.59;5002528;28;20034;-71
2023/02/05 02:09:40;;;;;;;5.83;1.90;;;;;;;-5.17;100.00;102920.03;4993789;28;20523;-71
2023/02/05 02:12:07;;;;;;;3.30;1.30;;;;;;;-5.14;100.00;102922.00;4982800;28;20393;-71
2023/02/05 02:14:34;;;;;;;5.53;1.47;;;;;;;-5.13;100.00;102905.81;5003842;28;20476;-71
2023/02/05 02:17:02;;;;;;;7.60;2.17;;;;;;;-5.19;100.00;102900.06;5000850;28;20089;-72
2023/02/05 02:19:39;;;;;;;6.40;1.33;;;;;;;-5.26;100.00;102892.53;4985984;28;20042;-71
2023/02/05 02:22:30;;;;;;;4.60;1.60;;;;;;;-5.28;100.00;102893.28;5005306;28;20038;-71
2023/02/05 02:25:20;;;;;;;7.63;1.70;;;;;;;-5.28;100.00;102890.69;5001550;28;20041;-71
2023/02/05 02:27:55;;;;;;;4.97;2.07;;;;;;;-5.30;100.00;102881.91;4998950;23;20046;-77
2023/02/05 02:30:31;;;;;;;7.23;2.00;;;;;;;-5.32;100.00;102880.91;4988079;28;20038;-77
2023/02/05 02:33:24;;;;;;;4.17;1.10;;;;;;;-5.32;100.00;102878.31;5007718;28;20489;-77
2023/02/05 02:36:01;;;;;;;6.85;1.58;;;;;;;-5.31;100.00;102871.50;5012542;28;20026;-77
2023/02/05 02:38:32;;;;;;;6.00;1.40;;;;;;;-5.38;100.00;102872.56;4997016;28;20030;-77
2023/02/05 02:41:07;;;;;;;8.75;2.10;;;;;;;-5.41;100.00;102866.22;4996822;28;20117;-77
2023/02/05 02:43:43;;;;;;;7.33;2.00;;;;;;;-5.43;100.00;102862.59;4975024;28;20030;-77
2023/02/05 02:46:19;;;;;;;5.30;1.73;;;;;;;-5.44;100.00;102864.28;4997783;28;20084;-77
2023/02/05 02:48:48;;;;;;;5.27;1.60;;;;;;;-5.50;100.00;102874.00;4990820;28;20034;-77
2023/02/05 02:51:16;;;;;;;7.50;2.10;;;;;;;-5.53;100.00;102871.09;4997992;28;20041;-77
2023/02/05 02:53:46;;;;;;;3.40;1.33;;;;;;;-5.56;100.00;102866.56;4995748;28;20140;-77
2023/02/05 02:56:13;;;;;;;7.07;1.63;;;;;;;-5.56;100.00;102865.66;4997112;28;20039;-77
2023/02/05 02:59:05;;;;;;;4.37;1.70;;;;;;;-5.57;100.00;102854.47;4997622;28;20030;-77
2023/02/05 03:01:34;;;;;;;6.07;1.60;;;;;;;-5.62;100.00;102863.41;4997448;28;20037;-77
2023/02/05 03:04:10;;;;;;;5.43;1.70;;;;;;;-5.68;100.00;102864.50;4997009;28;20034;-77
2023/02/05 03:06:38;;;;;;;5.60;1.27;;;;;;;-5.65;100.00;102859.66;4996906;28;20153;-77
2023/02/05 03:09:15;;;;;;;7.10;1.83;;;;;;;-5.75;100.00;102855.28;4996638;28;20053;-77
2023/02/05 03:11:41;;;;;;;7.60;2.60;;;;;;;-5.81;100.00;102845.31;4995477;28;20117;-77
2023/02/05 03:14:07;;;;;;;3.07;1.00;;;;;;;-5.84;100.00;102841.50;4997134;28;20038;-77
2023/02/05 03:16:36;;;;;;;3.53;1.10;;;;;;;-5.83;100.00;102841.66;4996356;28;20026;-77
2023/02/05 03:19:04;;;;;;;6.87;2.70;;;;;;;-5.81;100.00;102842.72;4996756;28;20042;-77
2023/02/05 03:21:36;;;;;;;3.97;1.23;;;;;;;-5.78;100.00;102843.03;4996978;28;20034;-77
2023/02/05 03:24:01;;;;;;;3.40;1.10;;;;;;;-5.86;100.00;102845.63;4998312;28;20042;-77
2023/02/05 03:26:31;;;;;;;6.30;1.47;;;;;;;-5.87;100.00;102854.06;4995763;28;20034;-76
2023/02/05 03:29:11;;;;;;;6.20;1.60;;;;;;;-5.90;100.00;102854.69;4994105;28;20066;-77
2023/02/05 03:31:49;;;;;;;4.37;1.83;;;;;;;-5.90;100.00;102849.53;4996697;28;20483;-77
2023/02/05 03:34:21;;;;;;;5.53;1.80;;;;;;;-6.02;100.00;102862.16;4992306;28;20034;-77
2023/02/05 03:37:26;;;;;;;2.97;1.00;;;;;;;-6.07;100.00;102865.03;4995623;28;20038;-77
2023/02/05 03:40:01;;;;;;;5.60;1.33;;;;;;;-6.05;100.00;102867.00;4994819;28;20484;-76
2023/02/05 03:42:59;;;;;;;5.00;1.60;;;;;;;-6.00;100.00;102864.84;4992472;28;20042;-77
2023/02/05 03:45:41;;;;;;;5.20;1.27;;;;;;;-5.97;100.00;102863.53;4989520;28;20110;-77
2023/02/05 03:48:25;;;;;;;3.10;1.30;;;;;;;-6.00;100.00;102855.50;4990654;28;20030;-77
2023/02/05 03:51:16;;;;;;;9.30;2.33;;;;;;;-6.04;100.00;102855.94;4975478;28;20046;-77
2023/02/05 03:53:54;;;;;;;3.13;0.87;;;;;;;-6.03;100.00;102849.13;4991936;28;20131;-77
2023/02/05 03:56:31;;;;;;;3.00;0.97;;;;;;;-6.04;100.00;102861.09;4992842;28;20038;-76
2023/02/05 03:58:57;;;;;;;3.10;1.07;;;;;;;-6.05;100.00;102858.34;4993308;28;20099;-77
2023/02/05 04:01:24;;;;;;;3.97;1.23;;;;;;;-6.05;100.00;102858.34;4993516;28;20062;-77
2023/02/05 04:03:50;;;;;;;3.47;1.00;;;;;;;-6.06;100.00;102857.47;4984985;28;20125;-77
2023/02/05 04:06:16;;;;;;;4.33;1.33;;;;;;;-6.05;100.00;102858.34;4992644;28;20041;-77
2023/02/05 04:08:42;;;;;;;3.77;1.40;;;;;;;-6.06;100.00;102854.00;4993854;28;20540;-77
2023/02/05 04:11:09;;;;;;;4.67;1.40;;;;;;;-6.12;100.00;102856.88;4987877;28;20062;-77
2023/02/05 04:13:35;;;;;;;9.63;1.60;;;;;;;-6.12;100.00;102850.84;4975459;28;20041;-77
2023/02/05 04:16:02;;;;;;;5.07;1.77;;;;;;;-6.13;100.00;102851.56;4992439;28;20029;-77
2023/02/05 04:18:27;;;;;;;4.73;1.53;;;;;;;-6.17;100.00;102863.22;4993996;28;20429;-77
2023/02/05 04:20:52;;;;;;;3.23;0.97;;;;;;;-6.22;100.00;102862.75;4993541;28;20904;-77
2023/02/05 04:23:21;;;;;;;3.87;0.87;;;;;;;-6.21;100.00;102864.59;4994770;28;20080;-77
2023/02/05 04:25:51;;;;;;;3.47;1.10;;;;;;;-6.24;100.00;102859.13;4992875;28;20034;-77
2023/02/05 04:28:17;;;;;;;3.60;1.10;;;;;;;-6.21;100.00;102859.47;4991922;28;20481;-77
2023/02/05 04:30:43;;;;;;;6.30;1.37;;;;;;;-6.13;100.00;102864.41;4994206;28;20041;-76
2023/02/05 04:33:09;;;;;;;7.50;1.53;;;;;;;-6.07;100.00;102857.34;4992668;28;20317;-77
2023/02/05 04:35:36;;;;;;;2.40;0.80;;;;;;;-5.97;100.00;102862.63;4992260;28;20493;-77
2023/02/05 04:38:02;;;;;;;3.60;1.50;;;;;;;-5.86;100.00;102871.34;4994568;28;20041;-77
2023/02/05 04:40:27;;;;;;;4.77;1.37;;;;;;;-5.86;100.00;102866.19;4992894;28;20042;-76
2023/02/05 04:42:52;;;;;;;3.77;1.10;;;;;;;-5.80;100.00;102872.81;4993779;28;20042;-77
2023/02/05 04:45:18;;;;;;;3.13;1.00;;;;;;;-5.66;100.00;102870.69;4992714;28;20088;-77
2023/02/05 04:47:43;;;;;;;4.53;1.57;;;;;;;-5.50;100.00;102866.28;4993485;28;20035;-77
2023/02/05 04:50:09;;;;;;;4.27;1.50;;;;;;;-5.40;100.00;102875.75;4993563;28;20030;-77
2023/02/05 04:52:35;;;;;;;4.67;1.00;;;;;;;-5.39;100.00;102865.63;4993977;28;20050;-77
2023/02/05 04:55:00;;;;;;;4.77;1.30;;;;;;;-5.29;100.00;102860.59;4991789;28;20056;-77
2023/02/05 04:57:26;;;;;;;5.20;1.60;;;;;;;-5.17;100.00;102871.13;4975285;28;20070;-77
2023/02/05 04:59:51;;;;;;;4.33;1.60;;;;;;;-5.06;100.00;102866.97;4993340;28;20022;-76
2023/02/05 05:02:16;;;;;;;3.20;1.10;;;;;;;-5.00;100.00;102875.31;4993524;28;20113;-77
2023/02/05 05:04:41;;;;;;;3.10;1.10;;;;;;;-4.91;100.00;102872.69;4993374;28;20441;-76
2023/02/05 05:07:08;;;;;;;3.13;1.17;;;;;;;-4.78;100.00;102883.34;4993207;28;20477;-77
2023/02/05 05:09:35;;;;;;;5.23;1.40;;;;;;;-4.64;100.00;102871.75;4993247;28;20042;-77
2023/02/05 05:12:00;;;;;;;2.80;0.90;;;;;;;-4.57;100.00;102870.66;4991309;28;20060;-77
2023/02/05 05:14:26;;;;;;;4.00;1.23;;;;;;;-4.49;100.00;102870.59;4993636;28;20497;-77
2023/02/05 05:16:51;;;;;;;2.67;0.70;;;;;;;-4.46;100.00;102877.69;4993184;28;20038;-77
2023/02/05 05:19:17;;;;;;;1.70;0.90;;;;;;;-4.38;100.00;102876.72;4993311;28;20044;-77
2023/02/05 05:21:42;;;;;;;3.17;0.90;;;;;;;-4.33;100.00;102869.41;4991764;28;20054;-77
2023/02/05 05:24:07;;;;;;;4.33;1.23;;;;;;;-4.36;100.00;102864.00;4993653;28;20048;-77
2023/02/05 05:26:33;;;;;;;4.13;1.07;;;;;;;-4.35;100.00;102860.63;4993169;28;20121;-77
2023/02/05 05:28:58;;;;;;;3.70;1.03;;;;;;;-4.32;100.00;102867.00;4994258;28;20061;-76
2023/02/05 05:31:24;;;;;;;5.10;1.70;;;;;;;-4.36;100.00;102870.03;4993815;28;20476;-77
2023/02/05 05:33:50;;;;;;;3.43;1.03;;;;;;;-4.32;100.00;102871.22;4994376;28;20104;-77
2023/02/05 05:36:16;;;;;;;5.90;1.53;;;;;;;-4.29;100.00;102874.09;4992479;28;20504;-77
2023/02/05 05:38:41;;;;;;;4.10;1.03;;;;;;;-4.28;100.00;102868.16;4994846;28;20038;-77
2023/02/05 05:44:00;;;;;;;1.83;0.67;;;;;;;-4.33;100.00;102861.69;4996430;28;20050;-77
2023/02/05 05:46:25;;;;;;;5.57;1.07;;;;;;;-4.32;100.00;102855.75;4993956;28;20382;-77
2023/02/05 05:48:56;;;;;;;4.20;1.63;;;;;;;-4.30;100.00;102849.06;4995935;28;20548;-77
2023/02/05 05:51:23;;;;;;;4.47;1.20;;;;;;;-4.26;100.00;102856.31;4989868;28;20034;-77
2023/02/05 05:53:48;;;;;;;4.07;1.30;;;;;;;-4.21;100.00;102844.75;4992937;28;20121;-77
2023/02/05 05:56:14;;;;;;;1.67;0.80;;;;;;;-4.22;100.00;102861.91;4992846;28;20113;-77
2023/02/05 05:58:40;;;;;;;2.80;0.73;;;;;;;-4.20;100.00;102868.09;4992770;28;20070;-77
2023/02/05 06:01:06;;;;;;;4.07;1.03;;;;;;;-4.14;100.00;102867.72;4992323;28;20061;-77
2023/02/05 06:03:32;;;;;;;4.57;2.03;;;;;;;-4.10;100.00;102864.69;4993883;28;20133;-77
2023/02/05 06:06:05;;;;;;;2.93;1.07;;;;;;;-4.04;100.00;102874.63;4993107;28;20128;-77
2023/02/05 06:08:31;;;;;;;4.50;1.53;;;;;;;-4.15;100.00;102883.97;4992960;28;20092;-77
2023/02/05 06:10:56;;;;;;;4.00;1.67;;;;;;;-4.11;100.00;102873.19;4994189;28;20053;-77
2023/02/05 06:13:22;;;;;;;3.03;1.10;;;;;;;-4.05;100.00;102867.69;4996268;28;20042;-77
2023/02/05 06:15:50;;;;;;;4.00;1.17;;;;;;;-3.98;100.00;102864.91;4994212;28;20596;-77
2023/02/05 06:18:17;;;;;;;4.10;1.30;;;;;;;-3.92;100.00;102865.44;4996793;28;20042;-77
2023/02/05 06:20:42;;;;;;;5.00;1.83;;;;;;;-3.92;100.00;102870.59;4994889;28;20394;-77
2023/02/05 06:23:07;;;;;;;3.90;1.67;;;;;;;-3.89;100.00;102878.59;4994532;28;20100;-77
2023/02/05 06:25:33;;;;;;;3.93;1.27;;;;;;;-3.93;100.00;102875.59;4994773;28;20046;-77
2023/02/05 06:27:58;;;;;;;3.53;1.30;;;;;;;-4.06;100.00;102883.91;4994759;28;20129;-77
2023/02/05 06:30:24;;;;;;;2.23;1.07;;;;;;;-4.07;100.00;102879.53;4995341;28;20026;-77
2023/02/05 06:32:49;;;;;;;8.77;2.80;;;;;;;-4.05;100.00;102885.72;4994724;28;20042;-78
2023/02/05 06:35:14;;;;;;;5.70;1.50;;;;;;;-3.98;100.00;102877.78;4993303;28;20038;-77
2023/02/05 06:37:40;;;;;;;4.33;1.70;;;;;;;-3.90;100.00;102878.44;4992524;28;20050;-77
2023/02/05 06:40:06;;;;;;;4.60;1.07;;;;;;;-3.96;100.00;102883.97;4993310;28;20038;-77
2023/02/05 06:42:31;;;;;;;3.33;1.30;;;;;;;-3.94;100.00;102873.81;4993215;28;20045;-77
2023/02/05 06:44:56;;;;;;;3.60;1.00;;;;;;;-3.93;100.00;102875.59;4992146;28;20030;-77
2023/02/05 06:47:22;;;;;;;3.13;1.17;;;;;;;-3.86;100.00;102870.22;4992166;28;20026;-77
2023/02/05 06:49:47;;;;;;;2.57;0.77;;;;;;;-3.89;100.00;102864.81;4992343;28;20176;-77
2023/02/05 06:52:12;;;;;;;2.73;1.27;;;;;;;-3.86;100.00;102871.13;4991681;28;20083;-77
2023/02/05 06:54:38;;;;;;;2.53;0.90;;;;;;;-3.76;100.00;102871.19;4991079;28;20129;-77
2023/02/05 06:57:03;;;;;;;3.47;1.80;;;;;;;-3.63;100.00;102874.88;4990226;28;20042;-77
2023/02/05 06:59:29;;;;;;;4.27;1.33;;;;;;;-3.57;100.00;102863.38;4990035;28;20045;-77
2023/02/05 07:01:54;;;;;;;2.87;0.80;;;;;;;-3.43;100.00;102871.44;4991823;28;20485;-77
2023/02/05 07:04:19;;;;;;;2.17;1.10;;;;;;;-3.32;100.00;102873.31;4991785;28;20038;-77
2023/02/05 07:06:45;;;;;;;2.60;0.97;;;;;;;-3.29;100.00;102872.66;4991103;28;20030;-77
2023/02/05 07:09:10;;;;;;;4.13;1.47;;;;;;;-3.27;100.00;102874.59;4992175;28;20041;-77
2023/02/05 07:11:35;;;;;;;3.07;1.07;;;;;;;-3.22;100.00;102875.91;4993561;28;20069;-77
2023/02/05 07:14:02;;;;;;;3.57;0.70;;;;;;;-3.17;100.00;102878.88;4993762;28;20524;-77
2023/02/05 07:16:28;;;;;;;2.77;1.10;;;;;;;-3.09;100.00;102867.56;4991551;28;20034;-77
2023/02/05 07:18:54;;;;;;;3.07;1.10;;;;;;;-2.99;100.00;102858.91;4996818;28;20038;-78
2023/02/05 07:21:19;;;;;;;4.77;1.23;;;;;;;-2.87;100.00;102862.53;4991382;28;20056;-77
2023/02/05 07:23:45;;;;;;;3.27;0.97;;;;;;;-2.80;100.00;102864.88;5000227;28;20034;-77
2023/02/05 07:26:13;;;;;;;3.63;1.00;;;;;;;-2.64;100.00;102869.66;4987359;28;20042;-78
2023/02/05 07:28:39;;;;;;;4.97;1.27;;;;;;;-2.51;100.00;102872.50;4996944;28;20042;-77
2023/02/05 07:31:07;;;;;;;4.03;1.10;;;;;;;-2.41;100.00;102876.78;4996132;28;20068;-77
2023/02/05 07:33:32;;;;;;;5.53;0.90;;;;;;;-2.36;100.00;102864.22;4999387;28;20030;-77
2023/02/05 07:36:02;;;;;;;3.30;0.97;;;;;;;-2.37;100.00;102872.75;4996096;28;20042;-77
2023/02/05 07:38:27;;;;;;;2.83;0.97;;;;;;;-2.38;100.00;102873.50;4999030;28;20046;-77
2023/02/05 07:40:53;;;;;;;3.27;1.30;;;;;;;-2.39;100.00;102882.06;4998661;28;20030;-78
2023/02/05 07:43:18;;;;;;;3.30;1.10;;;;;;;-2.37;100.00;102886.59;5000230;28;20038;-78
2023/02/05 07:45:43;;;;;;;2.77;0.90;;;;;;;-2.36;100.00;102887.50;4997633;28;20088;-77
2023/02/05 07:48:09;;;;;;;9.10;1.50;;;;;;;-2.34;100.00;102889.44;4997724;28;20065;-78
2023/02/05 07:50:34;;;;;;;3.53;0.90;;;;;;;-2.29;100.00;102880.38;5000415;28;20038;-78
2023/02/05 07:52:59;;;;;;;2.73;0.77;;;;;;;-2.27;100.00;102880.50;4996265;28;20049;-77
2023/02/05 07:55:24;;;;;;;5.00;1.30;;;;;;;-2.24;100.00;102873.91;4996399;28;20026;-77
2023/02/05 07:57:50;;;;;;;3.83;1.43;;;;;;;-2.21;100.00;102871.56;4997603;28;20053;-77
2023/02/05 08:00:15;;;;;;;4.17;1.07;;;;;;;-2.19;100.00;102860.47;4997931;28;20039;-77
2023/02/05 08:02:41;;;;;;;3.83;1.87;;;;;;;-2.17;100.00;102851.13;4996870;28;20121;-78
2023/02/05 08:05:07;;;;;;;4.60;1.67;;;;;;;-2.15;100.00;102844.38;4998365;28;20034;-77
2023/02/05 08:07:32;;;;;;;2.40;0.90;;;;;;;-2.12;100.00;102848.16;4998321;28;20117;-77
2023/02/05 08:09:57;;;;;;;4.23;1.47;;;;;;;-2.09;100.00;102847.50;4998551;28;20137;-77
2023/02/05 08:12:23;;;;;;;2.93;1.43;;;;;;;-2.06;100.00;102848.66;4998723;28;20124;-78
2023/02/05 08:14:48;;;;;;;3.60;1.00;;;;;;;-1.98;100.00;102852.75;4997702;28;20038;-77
2023/02/05 08:17:13;;;;;;;5.43;1.90;;;;;;;-1.90;100.00;102850.81;4994727;28;20031;-77
2023/02/05 08:19:40;;;;;;;3.27;0.90;;;;;;;-1.85;100.00;102854.66;4994027;28;20043;-77
2023/02/05 08:22:05;;;;;;;2.60;1.30;;;;;;;-1.75;100.00;102850.25;4995529;28;20392;-77
2023/02/05 08:24:31;;;;;;;3.17;0.90;;;;;;;-1.70;100.00;102835.97;4998344;28;20088;-77
2023/02/05 08:26:56;;;;;;;3.30;1.00;;;;;;;-1.55;100.00;102840.72;5010657;23;20030;-72
2023/02/05 08:29:22;;;;;;;3.27;1.10;;;;;;;-1.45;100.00;102826.78;5001891;28;20045;-71
2023/02/05 08:31:47;;;;;;;2.53;1.00;;;;;;;-1.31;100.00;102812.34;4997867;28;20040;-71
2023/02/05 08:34:14;;;;;;;6.20;1.50;;;;;;;-1.20;100.00;102808.00;5004591;28;20034;-71
2023/02/05 08:36:39;;;;;;;3.47;1.50;;;;;;;-1.11;100.00;102803.53;5002052;28;20030;-71
2023/02/05 08:39:04;;;;;;;3.07;1.30;;;;;;;-1.02;100.00;102814.63;5003232;28;20505;-70
2023/02/05 08:41:29;;;;;;;4.33;1.90;;;;;;;-0.91;100.00;102808.56;5003174;28;20049;-70
2023/02/05 08:43:55;;;;;;;3.97;1.67;;;;;;;-0.82;100.00;102807.44;5003220;28;20042;-71
2023/02/05 08:46:24;;;;;;;2.87;1.00;;;;;;;-0.78;100.00;102810.41;5002813;28;20034;-71
2023/02/05 08:48:49;;;;;;;3.53;1.23;;;;;;;-0.73;100.00;102796.09;5005262;28;20038;-70
2023/02/05 08:51:18;;;;;;;4.03;0.97;;;;;;;-0.65;99.72;102801.88;5003537;28;20068;-71
2023/02/05 08:53:43;;;;;;;4.23;1.27;;;;;;;-0.60;99.92;102805.72;5004704;28;20030;-71
2023/02/05 08:56:09;;;;;;;3.27;1.30;;;;;;;-0.54;99.41;102811.34;5001207;28;20027;-71
2023/02/05 08:58:36;;;;;;;3.37;1.03;;;;;;;-0.48;99.41;102811.81;5004364;28;20057;-71
2023/02/05 09:01:04;;;;;;;3.07;0.97;;;;;;;-0.46;98.43;102805.03;4999559;28;20069;-71
2023/02/05 09:03:30;;;;;;;4.17;1.10;;;;;;;-0.36;99.29;102795.38;4998884;28;20030;-70
2023/02/05 09:05:57;;;;;;;2.53;1.00;;;;;;;-0.26;98.32;102793.56;5004002;28;20034;-71
2023/02/05 09:08:23;;;;;;;4.33;0.90;;;;;;;-0.12;98.45;102799.75;5001457;28;20034;-71
2023/02/05 09:10:48;;;;;;;4.03;1.47;;;;;;;0.06;97.10;102800.22;5003481;28;20042;-71
2023/02/05 09:13:14;;;;;;;5.53;1.97;;;;;;;0.15;95.94;102805.16;5004282;28;20525;-71
2023/02/05 09:15:41;;;;;;;4.30;1.17;;;;;;;0.33;96.38;102814.28;4992356;28;22089;-72
2023/02/05 09:18:07;;;;;;;2.97;0.87;;;;;;;0.51;95.63;102806.00;4992364;28;20026;-71
2023/02/05 09:20:32;;;;;;;4.87;1.27;;;;;;;0.63;94.59;102810.38;4993823;28;20564;-71
2023/02/05 09:22:57;;;;;;;3.47;1.20;;;;;;;0.75;93.94;102804.22;4996126;28;20058;-71
2023/02/05 09:25:23;;;;;;;3.07;1.17;;;;;;;0.77;93.11;102800.94;4996557;28;20061;-72
2023/02/05 09:27:48;;;;;;;4.13;1.20;;;;;;;0.96;93.72;102799.63;4998100;28;20684;-72
2023/02/05 09:30:14;;;;;;;3.28;1.33;;;;;;;1.14;93.04;102794.78;4997131;28;20061;-71
2023/02/05 09:32:39;;;;;;;3.85;1.30;;;;;;;1.21;91.59;102792.72;4999295;28;20030;-71
2023/02/05 09:35:05;;;;;;;5.43;2.22;;;;;;;1.41;91.74;102780.13;4997356;28;20121;-71
2023/02/05 09:37:30;;;;;;;5.30;1.60;;;;;;;1.51;90.67;102787.75;4997970;28;20058;-72
2023/02/05 09:39:55;;;;;;;5.63;1.95;;;;;;;1.61;90.17;102776.25;4995207;28;20042;-71
2023/02/05 09:42:34;;;;;;;4.70;1.40;;;;;;;1.73;90.05;102771.88;4998692;28;20062;-72
2023/02/05 09:45:15;;;;;;;5.95;1.23;;;;;;;1.74;89.05;102765.84;4996928;28;20065;-72
2023/02/05 09:48:06;;;;;;;3.22;1.42;;;;;;;1.74;87.88;102769.34;4999321;28;20035;-72
2023/02/05 09:50:32;;;;;;;4.97;1.92;;;;;;;1.86;88.81;102760.53;4984547;28;20576;-71
2023/02/05 09:53:04;;;;;;;2.53;1.13;;;;;;;1.95;87.06;102761.13;5001325;28;20038;-72
2023/02/05 09:55:34;;;;;;;7.03;1.48;;;;;;;1.96;87.30;102769.06;4999641;28;20060;-72
2023/02/05 09:58:05;;;;;;;5.13;2.05;;;;;;;2.00;85.55;102772.75;5002745;28;20037;-71
2023/02/05 10:00:41;;;;;;;3.75;1.38;;;;;;;2.06;85.98;102770.53;4997640;28;20037;-71
2023/02/05 10:03:10;;;;;;;5.68;2.08;;;;;;;2.12;86.17;102760.53;5000879;28;20087;-71
2023/02/05 10:06:10;;;;;;;4.85;1.65;;;;;;;2.01;83.06;102766.72;4997658;28;20049;-72
2023/02/05 10:09:03;;;;;;;4.05;1.83;;;;;;;2.06;83.95;102767.94;5001023;28;20045;-71
2023/02/05 10:11:41;;;;;;;4.00;1.73;;;;;;;2.30;84.09;102752.06;5002527;28;20125;-71
2023/02/05 10:14:27;;;;;;;6.03;1.77;;;;;;;2.52;83.59;102755.22;5000772;28;20522;-72
2023/02/05 10:17:28;;;;;;;8.13;1.73;;;;;;;2.68;81.42;102764.88;4994456;28;20038;-72
2023/02/05 10:20:12;;;;;;;2.30;0.95;;;;;;;2.83;82.22;102757.13;4997937;28;20050;-72
2023/02/05 10:22:53;;;;;;;4.25;1.20;;;;;;;2.83;79.62;102759.72;5003203;28;20124;-72
2023/02/05 10:25:47;;;;;;;4.45;1.33;;;;;;;2.90;80.33;102750.53;4997516;28;20030;-72
2023/02/05 10:28:27;;;;;;;5.05;1.60;;;;;;;2.90;77.74;102745.31;4981690;28;20037;-72
2023/02/05 10:31:26;;;;;;;3.83;1.10;;;;;;;2.95;78.51;102736.06;4992159;28;20374;-72
2023/02/05 10:33:56;;;;;;;5.25;1.15;;;;;;;2.97;76.32;102734.47;4994776;28;20117;-72
2023/02/05 10:36:25;;;;;;;4.88;1.35;;;;;;;3.03;76.20;102727.88;4995116;28;20026;-72
2023/02/05 10:38:55;;;;;;;2.67;1.27;;;;;;;3.06;77.67;102735.00;4999199;28;20038;-72
2023/02/05 10:41:41;;;;;;;3.78;1.10;;;;;;;3.20;76.89;102731.50;5002313;28;20034;-72
2023/02/05 10:44:14;;;;;;;4.53;1.38;;;;;;;3.37;76.41;102726.38;4993751;28;20030;-72
2023/02/05 10:46:42;;;;;;;2.72;0.98;;;;;;;3.34;74.56;102724.47;4997094;28;20037;-72
2023/02/05 10:49:19;;;;;;;2.13;1.00;;;;;;;3.40;74.36;102719.59;5001320;28;20034;-73
2023/02/05 10:51:45;;;;;;;4.50;0.90;;;;;;;3.41;74.62;102720.53;4993213;28;20519;-72
2023/02/05 10:54:27;;;;;;;3.60;1.00;;;;;;;3.47;74.23;102716.56;5002694;28;20077;-72
2023/02/05 10:56:53;;;;;;;2.47;0.65;;;;;;;3.47;72.43;102711.34;5001306;28;20105;-72
2023/02/05 10:59:23;;;;;;;2.60;0.70;;;;;;;3.26;72.62;102723.13;5004131;28;20045;-72
2023/02/05 11:01:50;;;;;;;3.15;1.02;;;;;;;3.31;73.98;102718.19;4992458;28;20035;-72
2023/02/05 11:04:21;;;;;;;2.83;0.80;;;;;;;3.32;72.51;102720.88;5002546;28;20037;-72
2023/02/05 11:06:51;;;;;;;7.32;1.85;;;;;;;3.43;73.25;102722.44;5001079;28;20103;-72
2023/02/05 11:09:25;;;;;;;2.35;0.75;;;;;;;3.42;70.03;102715.38;5001919;28;20121;-72
2023/02/05 11:11:56;;;;;;;1.55;0.47;;;;;;;3.34;71.22;102718.38;5002074;28;20104;-72
2023/02/05 11:14:27;;;;;;;2.78;0.80;;;;;;;3.31;71.26;102720.81;5000648;28;20034;-72
2023/02/05 11:16:52;;;;;;;1.27;0.55;;;;;;;3.39;72.52;102723.03;5002385;28;20042;-72
2023/02/05 11:19:24;;;;;;;3.30;0.57;;;;;;;3.42;70.69;102714.50;5002469;28;20255;-72
2023/02/05 11:21:53;;;;;;;3.22;1.15;;;;;;;3.47;70.75;102711.34;4999362;28;20057;-72
2023/02/05 11:24:35;;;;;;;1.55;0.63;;;;;;;3.51;69.86;102713.31;5002721;28;20408;-72
2023/02/05 11:27:28;;;;;;;4.47;0.40;;;;;;;3.53;68.36;102699.44;4997558;28;20034;-72
2023/02/05 11:29:58;;;;;;;3.67;0.60;;;;;;;3.55;68.79;102684.78;4997610;28;20053;-72
2023/02/05 11:32:36;;;;;;;1.08;0.30;;;;;;;3.62;69.54;102687.81;4997478;28;20034;-72
2023/02/05 11:35:21;;;;;;;0.65;0.30;;;;;;;3.82;68.60;102691.53;5004477;28;20405;-72